Time;durP1;ratioP1;P1;durP2;ratioP2;P2;SDS_P1;SDS_P2;PMS_P1;PMS_P2;Temp;Humidity;BMP_temperature;BMP_pressure;BME280_temperature;BME280_humidity;BME280_pressure;Samples;Min_cycle;Max_cycle;Signal;HPM_P1;HPM_P2
2021/03/07 00:00:53;;;;;;;14.50;7.60;;;3.40;99.90;;;;;;5075461;28;20166;-76
2021/03/07 00:03:21;;;;;;;15.70;7.83;;;3.30;99.90;;;;;;5093352;28;20206;-76
2021/03/07 00:05:47;;;;;;;11.67;6.87;;;3.20;99.90;;;;;;5093938;28;20174;-76
2021/03/07 00:08:12;;;;;;;12.37;8.40;;;3.20;99.90;;;;;;5093314;28;20536;-76
2021/03/07 00:10:38;;;;;;;10.53;7.40;;;3.20;99.90;;;;;;5093668;28;20181;-76
2021/03/07 00:13:04;;;;;;;11.83;7.40;;;3.30;99.90;;;;;;5092442;28;20528;-75
2021/03/07 00:15:30;;;;;;;13.17;7.93;;;3.30;99.90;;;;;;5093579;28;20260;-75
2021/03/07 00:17:55;;;;;;;13.33;7.50;;;3.40;99.90;;;;;;5093249;28;20308;-76
2021/03/07 00:20:22;;;;;;;11.93;7.53;;;3.30;99.90;;;;;;5093118;28;20185;-75
2021/03/07 00:22:48;;;;;;;13.13;7.33;;;3.30;99.90;;;;;;5093134;28;20211;-76
2021/03/07 00:25:15;;;;;;;14.80;7.93;;;3.20;99.90;;;;;;5092258;28;20166;-77
2021/03/07 00:27:42;;;;;;;13.93;7.77;;;3.10;99.90;;;;;;5094424;28;20166;-76
2021/03/07 00:30:10;;;;;;;14.63;8.37;;;3.10;99.90;;;;;;5096287;28;20237;-76
2021/03/07 00:32:36;;;;;;;14.63;8.40;;;2.90;99.90;;;;;;5089040;28;20170;-76
2021/03/07 00:35:02;;;;;;;11.47;7.70;;;2.90;99.90;;;;;;5079228;28;20170;-77
2021/03/07 00:37:28;;;;;;;13.77;7.63;;;2.90;99.90;;;;;;5078983;28;20194;-76
2021/03/07 00:39:54;;;;;;;12.30;8.93;;;2.90;99.90;;;;;;5097310;28;20505;-75
2021/03/07 00:42:19;;;;;;;11.57;8.37;;;2.80;99.90;;;;;;5078902;28;20525;-76
2021/03/07 00:44:45;;;;;;;11.30;8.40;;;2.80;99.90;;;;;;5079293;28;20174;-75
2021/03/07 00:47:15;;;;;;;12.07;8.30;;;2.90;99.90;;;;;;5096706;28;20622;-76
2021/03/07 00:49:40;;;;;;;12.50;8.47;;;2.80;99.90;;;;;;5096979;28;20201;-75
2021/03/07 00:52:06;;;;;;;15.07;8.47;;;2.70;99.90;;;;;;5096331;28;20190;-76
2021/03/07 00:54:32;;;;;;;15.67;8.60;;;2.70;99.90;;;;;;5095739;28;20161;-75
2021/03/07 00:56:57;;;;;;;12.33;8.67;;;2.70;99.90;;;;;;5096638;28;20197;-75
2021/03/07 00:59:24;;;;;;;23.40;8.60;;;2.80;99.90;;;;;;5078919;28;20508;-75
2021/03/07 01:01:50;;;;;;;16.10;8.17;;;2.70;99.90;;;;;;5085358;28;20169;-75
2021/03/07 01:04:16;;;;;;;14.07;9.30;;;2.70;99.90;;;;;;5078214;28;20182;-76
2021/03/07 01:06:42;;;;;;;12.30;9.10;;;2.50;99.90;;;;;;5096642;28;20173;-75
2021/03/07 01:09:07;;;;;;;10.27;7.80;;;2.50;99.90;;;;;;5096483;28;20582;-75
2021/03/07 01:11:33;;;;;;;12.40;7.73;;;2.60;99.90;;;;;;5095463;28;20181;-76
2021/03/07 01:14:04;;;;;;;12.80;9.07;;;2.60;99.90;;;;;;5096972;28;20170;-75
2021/03/07 01:16:30;;;;;;;13.80;8.97;;;2.60;99.90;;;;;;5095116;28;20700;-75
2021/03/07 01:18:55;;;;;;;15.00;9.33;;;2.70;99.90;;;;;;5096230;28;20221;-75
2021/03/07 01:21:21;;;;;;;11.17;8.67;;;2.70;99.90;;;;;;5088350;28;20256;-75
2021/03/07 01:23:47;;;;;;;15.33;8.60;;;2.80;99.90;;;;;;5080176;28;20189;-75
2021/03/07 01:26:12;;;;;;;14.53;9.90;;;2.90;99.90;;;;;;5096516;28;20267;-75
2021/03/07 01:28:39;;;;;;;11.70;8.20;;;2.90;99.90;;;;;;5096204;28;20650;-75
2021/03/07 01:31:05;;;;;;;11.03;8.27;;;2.80;99.90;;;;;;5094946;28;20158;-76
2021/03/07 01:33:30;;;;;;;14.93;8.87;;;2.70;99.90;;;;;;5096365;28;20602;-75
2021/03/07 01:36:02;;;;;;;13.90;8.87;;;2.50;99.90;;;;;;5087815;28;20189;-76
2021/03/07 01:38:28;;;;;;;15.00;9.60;;;2.40;99.90;;;;;;5075079;28;20217;-75
2021/03/07 01:40:58;;;;;;;14.43;9.13;;;2.40;99.90;;;;;;5077515;28;20201;-76
2021/03/07 01:43:25;;;;;;;16.13;9.67;;;2.50;99.90;;;;;;5077932;28;20586;-75
2021/03/07 01:45:52;;;;;;;17.27;9.40;;;2.60;99.90;;;;;;5095954;28;20167;-75
2021/03/07 01:48:22;;;;;;;13.13;9.07;;;2.60;99.90;;;;;;5077879;28;20173;-76
2021/03/07 01:50:53;;;;;;;15.67;10.00;;;2.60;99.90;;;;;;5081024;28;20162;-75
2021/03/07 01:53:20;;;;;;;12.40;8.80;;;2.60;99.90;;;;;;5096105;28;20157;-76
2021/03/07 01:55:46;;;;;;;15.77;9.53;;;2.60;99.90;;;;;;5077696;28;20174;-75
2021/03/07 01:58:17;;;;;;;11.47;9.27;;;2.60;99.90;;;;;;5095553;28;20213;-76
2021/03/07 02:00:43;;;;;;;12.97;9.17;;;2.70;99.90;;;;;;5093115;28;20621;-75
2021/03/07 02:03:09;;;;;;;13.43;9.47;;;2.70;99.90;;;;;;5077548;28;20166;-75
2021/03/07 02:05:36;;;;;;;15.03;9.40;;;2.70;99.90;;;;;;5077415;28;20556;-76
2021/03/07 02:08:02;;;;;;;14.17;8.70;;;2.80;99.90;;;;;;5095318;28;20636;-75
2021/03/07 02:10:31;;;;;;;16.03;9.10;;;2.70;99.90;;;;;;5077478;28;20172;-75
2021/03/07 02:13:00;;;;;;;14.37;9.63;;;2.70;99.90;;;;;;5095670;28;20580;-75
2021/03/07 02:15:28;;;;;;;17.30;9.03;;;2.60;99.90;;;;;;5077092;28;20591;-76
2021/03/07 02:17:55;;;;;;;13.27;9.03;;;2.60;99.90;;;;;;5083122;28;20250;-76
2021/03/07 02:20:23;;;;;;;14.23;9.17;;;2.40;99.90;;;;;;5077928;28;20170;-75
2021/03/07 02:23:05;;;;;;;11.50;8.93;;;2.30;99.90;;;;;;5076878;28;20166;-75
2021/03/07 02:25:31;;;;;;;16.63;10.07;;;2.00;99.90;;;;;;5095123;28;20189;-75
2021/03/07 02:27:58;;;;;;;11.50;9.27;;;1.90;99.90;;;;;;5060270;28;20563;-74
2021/03/07 02:30:28;;;;;;;16.43;9.43;;;1.70;99.90;;;;;;5094830;28;20182;-75
2021/03/07 02:33:24;;;;;;;14.40;9.77;;;1.70;99.90;;;;;;5094888;28;20220;-76
2021/03/07 02:36:12;;;;;;;15.97;9.87;;;1.70;99.90;;;;;;5074046;28;20175;-75
2021/03/07 02:38:39;;;;;;;24.37;9.70;;;1.70;99.90;;;;;;5095246;28;20159;-75
2021/03/07 02:41:07;;;;;;;14.20;9.13;;;1.70;99.90;;;;;;5076364;28;20205;-75
2021/03/07 02:43:38;;;;;;;13.60;9.37;;;1.70;99.90;;;;;;5095076;28;20249;-75
2021/03/07 02:46:05;;;;;;;19.93;8.87;;;1.80;99.90;;;;;;5094371;28;20184;-76
2021/03/07 02:48:32;;;;;;;12.90;9.43;;;1.90;99.90;;;;;;5094549;28;20162;-76
2021/03/07 02:51:00;;;;;;;15.07;9.47;;;1.90;99.90;;;;;;5094530;28;20190;-75
2021/03/07 02:53:29;;;;;;;14.67;9.43;;;1.80;99.90;;;;;;5076628;28;20170;-75
2021/03/07 02:56:08;;;;;;;12.70;10.27;;;2.00;99.90;;;;;;5094410;28;20229;-76
2021/03/07 02:58:36;;;;;;;15.33;10.30;;;2.10;99.90;;;;;;5094603;28;20177;-75
2021/03/07 03:01:04;;;;;;;17.53;10.80;;;2.10;99.90;;;;;;5094155;28;20215;-75
2021/03/07 03:03:34;;;;;;;12.90;10.20;;;2.10;99.90;;;;;;5093258;28;20192;-75
2021/03/07 03:06:02;;;;;;;14.43;10.80;;;1.90;99.90;;;;;;5094743;28;20227;-75
2021/03/07 03:08:30;;;;;;;17.13;10.37;;;1.80;99.90;;;;;;5094380;28;20161;-75
2021/03/07 03:10:57;;;;;;;16.83;10.20;;;1.60;99.90;;;;;;5092953;28;20169;-76
2021/03/07 03:13:25;;;;;;;21.60;10.93;;;1.50;99.90;;;;;;5093840;28;20295;-75
2021/03/07 03:15:53;;;;;;;14.63;10.00;;;1.30;99.90;;;;;;5092942;28;20169;-75
2021/03/07 03:18:20;;;;;;;17.70;10.30;;;1.30;99.90;;;;;;5093288;28;20193;-75
2021/03/07 03:20:47;;;;;;;13.93;10.83;;;1.30;99.90;;;;;;5080852;28;20158;-75
2021/03/07 03:23:14;;;;;;;25.10;10.80;;;1.30;99.90;;;;;;5093735;28;20198;-75
2021/03/07 03:25:39;;;;;;;16.93;11.20;;;1.30;99.90;;;;;;5076122;28;20177;-75
2021/03/07 03:28:07;;;;;;;13.10;10.83;;;1.30;99.90;;;;;;5087156;28;20636;-75
2021/03/07 03:30:34;;;;;;;19.73;10.53;;;1.50;99.90;;;;;;5064350;28;20185;-75
2021/03/07 03:32:59;;;;;;;20.80;11.03;;;1.70;99.90;;;;;;5094013;28;20166;-75
2021/03/07 03:35:25;;;;;;;14.07;10.27;;;1.70;99.90;;;;;;5079610;28;20651;-75
2021/03/07 03:37:51;;;;;;;17.13;11.40;;;1.60;99.90;;;;;;5091896;28;20231;-74
2021/03/07 03:40:22;;;;;;;17.80;11.30;;;1.60;99.90;;;;;;5092473;28;20168;-75
2021/03/07 03:42:54;;;;;;;22.37;11.30;;;1.60;99.90;;;;;;5093926;28;20212;-75
2021/03/07 03:45:21;;;;;;;17.83;11.27;;;1.50;99.90;;;;;;5075562;28;20181;-75
2021/03/07 03:47:53;;;;;;;12.60;11.33;;;1.50;99.90;;;;;;5093478;28;20174;-76
2021/03/07 03:50:22;;;;;;;16.27;11.43;;;1.70;99.90;;;;;;5093139;28;20166;-75
2021/03/07 03:52:50;;;;;;;15.13;11.17;;;1.80;99.90;;;;;;5075945;28;20181;-75
2021/03/07 03:55:25;;;;;;;13.30;11.40;;;1.90;99.90;;;;;;5093759;28;20158;-75
2021/03/07 03:57:55;;;;;;;19.23;11.80;;;1.90;99.90;;;;;;5093323;28;20193;-75
2021/03/07 04:00:25;;;;;;;12.40;10.50;;;1.90;99.90;;;;;;5075456;28;20181;-75
2021/03/07 04:02:54;;;;;;;20.30;12.23;;;1.90;99.90;;;;;;5092939;28;20168;-75
2021/03/07 04:05:21;;;;;;;17.40;11.97;;;1.90;99.90;;;;;;5093160;28;20645;-74
2021/03/07 04:07:47;;;;;;;14.37;10.87;;;1.80;99.90;;;;;;5093605;28;20181;-75
2021/03/07 04:10:16;;;;;;;14.47;10.77;;;1.70;99.90;;;;;;5075488;28;20174;-75
2021/03/07 04:12:43;;;;;;;24.43;10.90;;;1.70;99.90;;;;;;5092156;28;20189;-75
2021/03/07 04:15:11;;;;;;;21.07;11.50;;;1.70;99.90;;;;;;5075012;28;20170;-75
2021/03/07 04:17:39;;;;;;;16.27;11.73;;;1.80;99.90;;;;;;5091954;28;20200;-75
2021/03/07 04:20:07;;;;;;;17.57;11.00;;;1.80;99.90;;;;;;5077539;28;20626;-75
2021/03/07 04:22:33;;;;;;;13.73;11.70;;;2.00;99.90;;;;;;5093238;28;20710;-75
2021/03/07 04:24:59;;;;;;;14.97;11.87;;;2.00;99.90;;;;;;5093171;28;20174;-76
2021/03/07 04:27:25;;;;;;;18.80;12.10;;;2.00;99.90;;;;;;5093729;28;20170;-75
2021/03/07 04:29:52;;;;;;;19.33;13.00;;;1.90;99.90;;;;;;5091895;28;20189;-75
2021/03/07 04:32:18;;;;;;;24.60;12.90;;;1.70;99.90;;;;;;5075581;28;20162;-75
2021/03/07 04:34:45;;;;;;;17.03;12.47;;;1.40;99.90;;;;;;5093194;28;20184;-75
2021/03/07 04:37:11;;;;;;;22.97;11.80;;;1.20;99.90;;;;;;5091705;28;20201;-75
2021/03/07 04:39:37;;;;;;;28.07;12.97;;;1.10;99.90;;;;;;5092479;28;20173;-75
2021/03/07 04:42:04;;;;;;;16.27;13.17;;;1.00;99.90;;;;;;5075320;28;20170;-75
2021/03/07 04:44:30;;;;;;;16.90;12.50;;;1.00;99.90;;;;;;5093137;28;20223;-75
2021/03/07 04:46:56;;;;;;;20.93;13.20;;;0.90;99.90;;;;;;5085687;28;20644;-75
2021/03/07 04:49:22;;;;;;;19.03;13.37;;;0.90;99.90;;;;;;5074758;28;20170;-75
2021/03/07 04:51:48;;;;;;;22.60;13.93;;;1.00;99.90;;;;;;5093063;28;20509;-76
2021/03/07 04:54:14;;;;;;;20.60;13.77;;;1.00;99.90;;;;;;5075138;28;20177;-75
2021/03/07 04:56:39;;;;;;;19.80;13.97;;;0.90;99.90;;;;;;5070173;28;20198;-75
2021/03/07 04:59:05;;;;;;;27.17;15.73;;;0.90;99.90;;;;;;5092980;28;20218;-75
2021/03/07 05:01:31;;;;;;;23.07;15.63;;;0.90;99.90;;;;;;5077835;28;20166;-75
2021/03/07 05:03:56;;;;;;;21.47;14.50;;;1.00;99.90;;;;;;5075132;28;20163;-75
2021/03/07 05:06:25;;;;;;;23.27;15.37;;;0.90;99.90;;;;;;5075008;28;20577;-75
2021/03/07 05:08:52;;;;;;;20.50;14.30;;;0.90;99.90;;;;;;5074968;28;20624;-75
2021/03/07 05:11:21;;;;;;;19.40;13.83;;;1.00;99.90;;;;;;5093265;28;20245;-75
2021/03/07 05:13:48;;;;;;;19.43;14.87;;;1.00;99.90;;;;;;5094348;28;20177;-75
2021/03/07 05:16:13;;;;;;;23.43;14.87;;;0.90;99.90;;;;;;5096267;28;20202;-75
2021/03/07 05:18:39;;;;;;;23.17;14.60;;;0.90;99.90;;;;;;5096439;28;20212;-75
2021/03/07 05:21:05;;;;;;;21.93;15.03;;;0.90;99.90;;;;;;5096864;28;20679;-75
2021/03/07 05:23:31;;;;;;;21.37;14.17;;;0.90;99.90;;;;;;5096313;28;20166;-75
2021/03/07 05:25:57;;;;;;;20.80;13.90;;;0.80;99.90;;;;;;5088917;28;20648;-74
2021/03/07 05:28:23;;;;;;;21.53;14.70;;;0.90;99.90;;;;;;5077849;28;20675;-76
2021/03/07 05:30:48;;;;;;;26.67;14.67;;;0.90;99.90;;;;;;5096148;28;20166;-77
2021/03/07 05:33:16;;;;;;;29.53;16.27;;;1.00;99.90;;;;;;5095441;28;20525;-76
2021/03/07 05:35:42;;;;;;;27.17;15.83;;;1.10;99.90;;;;;;5078153;28;20173;-75
2021/03/07 05:38:09;;;;;;;21.67;14.67;;;1.10;99.90;;;;;;5096156;28;20203;-75
2021/03/07 05:40:35;;;;;;;24.17;15.20;;;1.10;99.90;;;;;;5066760;28;20204;-75
2021/03/07 05:43:04;;;;;;;25.87;15.90;;;1.00;99.90;;;;;;5095985;28;20170;-76
2021/03/07 05:45:30;;;;;;;22.47;14.40;;;0.90;99.90;;;;;;5094841;28;20185;-75
2021/03/07 05:47:56;;;;;;;27.30;14.83;;;1.00;99.90;;;;;;5085136;28;20176;-76
2021/03/07 05:50:23;;;;;;;31.57;15.90;;;1.00;99.90;;;;;;5078056;28;20256;-75
2021/03/07 05:52:52;;;;;;;23.30;14.57;;;1.00;99.90;;;;;;5086104;28;20227;-75
2021/03/07 05:55:18;;;;;;;20.33;15.20;;;1.00;99.90;;;;;;5095874;28;20166;-75
2021/03/07 05:57:47;;;;;;;26.53;14.23;;;1.00;99.90;;;;;;5095364;28;20193;-75
2021/03/07 06:00:18;;;;;;;26.60;15.30;;;1.10;99.90;;;;;;5095351;28;20522;-76
2021/03/07 06:02:44;;;;;;;29.17;15.30;;;1.20;99.90;;;;;;5075495;28;20245;-75
2021/03/07 06:05:10;;;;;;;24.60;15.20;;;1.30;99.90;;;;;;5057464;28;20261;-75
2021/03/07 06:07:36;;;;;;;27.83;15.20;;;1.30;99.90;;;;;;5063414;28;20166;-75
2021/03/07 06:10:23;;;;;;;25.97;15.17;;;1.40;99.90;;;;;;5095647;28;20665;-76
2021/03/07 06:12:56;;;;;;;22.23;15.20;;;1.30;99.90;;;;;;5095338;28;20177;-75
2021/03/07 06:15:22;;;;;;;19.93;14.23;;;1.40;99.90;;;;;;5094215;28;20609;-75
2021/03/07 06:17:48;;;;;;;19.53;14.30;;;1.40;99.90;;;;;;5085920;28;20197;-75
2021/03/07 06:20:19;;;;;;;23.40;14.83;;;1.40;99.90;;;;;;5077079;28;20192;-75
2021/03/07 06:23:03;;;;;;;24.80;15.53;;;1.50;99.90;;;;;;5095274;28;20165;-75
2021/03/07 06:25:30;;;;;;;23.43;15.43;;;1.50;99.90;;;;;;5087452;28;20690;-75
2021/03/07 06:27:57;;;;;;;24.40;15.43;;;1.60;99.90;;;;;;5090875;28;20181;-75
2021/03/07 06:30:24;;;;;;;25.70;16.47;;;1.60;99.90;;;;;;5077064;28;20274;-75
2021/03/07 06:32:58;;;;;;;25.97;17.00;;;1.60;99.90;;;;;;5095150;28;20215;-75
2021/03/07 06:35:26;;;;;;;27.83;17.13;;;1.70;99.90;;;;;;5094987;28;20158;-75
2021/03/07 06:38:06;;;;;;;23.87;16.57;;;1.60;99.90;;;;;;5094604;28;20201;-75
2021/03/07 06:40:40;;;;;;;28.60;18.33;;;1.70;99.90;;;;;;5094672;28;20594;-75
2021/03/07 06:43:23;;;;;;;29.37;16.30;;;1.80;99.90;;;;;;5087586;28;20212;-75
2021/03/07 06:45:49;;;;;;;30.73;16.00;;;1.80;99.90;;;;;;5094901;28;20166;-74
2021/03/07 06:48:15;;;;;;;22.80;16.90;;;1.80;99.90;;;;;;5087694;28;20205;-75
2021/03/07 06:50:57;;;;;;;23.20;15.77;;;1.70;99.90;;;;;;5094571;28;20516;-75
2021/03/07 06:53:37;;;;;;;23.77;16.40;;;1.70;99.90;;;;;;5094645;28;20154;-75
2021/03/07 06:56:04;;;;;;;26.43;15.90;;;1.70;99.90;;;;;;5076331;28;20162;-76
2021/03/07 06:58:30;;;;;;;23.33;16.53;;;1.70;99.90;;;;;;5073234;28;20616;-75
2021/03/07 07:00:56;;;;;;;25.67;16.50;;;1.60;99.90;;;;;;5090587;28;20197;-75
2021/03/07 07:03:22;;;;;;;26.83;15.70;;;1.70;99.90;;;;;;5076468;28;20170;-74
2021/03/07 07:05:50;;;;;;;26.10;15.50;;;1.60;99.90;;;;;;5076446;28;20266;-74
2021/03/07 07:08:18;;;;;;;21.60;15.67;;;1.60;99.90;;;;;;5075936;28;20519;-75
2021/03/07 07:10:56;;;;;;;31.63;15.93;;;1.80;99.90;;;;;;5094056;28;20158;-74
2021/03/07 07:13:29;;;;;;;22.73;15.03;;;2.00;99.90;;;;;;5093218;28;20605;-75
2021/03/07 07:16:06;;;;;;;24.57;15.50;;;2.30;99.90;;;;;;5092863;28;20681;-75
2021/03/07 07:18:34;;;;;;;31.13;17.30;;;2.70;99.90;;;;;;5091008;28;20220;-76
2021/03/07 07:21:02;;;;;;;23.87;16.93;;;3.10;99.90;;;;;;5092195;28;20500;-75
2021/03/07 07:23:28;;;;;;;22.37;15.83;;;4.10;99.90;;;;;;5078159;28;20174;-75
2021/03/07 07:25:54;;;;;;;18.13;14.00;;;5.60;99.90;;;;;;5094200;28;20162;-75
2021/03/07 07:28:20;;;;;;;19.10;13.10;;;7.60;99.90;;;;;;5094053;28;20243;-76
2021/03/07 07:31:10;;;;;;;16.87;11.87;;;9.60;99.90;;;;;;5093736;28;20162;-75
2021/03/07 07:33:51;;;;;;;12.77;11.02;;;11.40;99.90;;;;;;5094196;28;20166;-75
2021/03/07 07:36:38;;;;;;;13.32;10.60;;;12.80;99.90;;;;;;5074973;28;20558;-75
2021/03/07 07:39:06;;;;;;;17.10;11.10;;;14.00;99.90;;;;;;5086806;28;20170;-75
2021/03/07 07:41:39;;;;;;;14.95;10.23;;;14.90;99.90;;;;;;5075900;28;20169;-75
2021/03/07 07:44:07;;;;;;;11.15;9.65;;;16.00;99.90;;;;;;5093805;28;20458;-74
2021/03/07 07:46:34;;;;;;;10.98;9.93;;;16.30;99.90;;;;;;5093591;28;20166;-75
2021/03/07 07:49:00;;;;;;;11.43;9.80;;;16.60;99.90;;;;;;5092358;28;20219;-75
2021/03/07 07:51:38;;;;;;;10.93;9.73;;;15.60;99.90;;;;;;5093785;28;20207;-75
2021/03/07 07:54:08;;;;;;;15.63;10.60;;;16.40;99.90;;;;;;5092439;28;20248;-74
2021/03/07 07:56:43;;;;;;;14.10;10.38;;;15.70;99.90;;;;;;5093358;28;20245;-75
2021/03/07 07:59:13;;;;;;;14.57;10.75;;;16.50;99.90;;;;;;5082202;28;20672;-75
2021/03/07 08:01:50;;;;;;;11.57;10.25;;;16.40;99.50;;;;;;5092966;28;20162;-75
2021/03/07 08:04:28;;;;;;;16.05;10.77;;;16.80;99.90;;;;;;5093336;28;20573;-75
2021/03/07 08:06:59;;;;;;;11.93;9.88;;;18.20;97.50;;;;;;5093870;28;20248;-77
2021/03/07 08:09:45;;;;;;;12.88;9.85;;;17.90;97.70;;;;;;5093319;28;20641;-75
2021/03/07 08:12:46;;;;;;;16.88;9.73;;;19.10;95.80;;;;;;5092297;28;20165;-75
2021/03/07 08:15:27;;;;;;;12.75;10.35;;;18.70;94.70;;;;;;5093028;28;20158;-74
2021/03/07 08:17:54;;;;;;;16.48;11.48;;;18.10;95.80;;;;;;5093071;28;20200;-74
2021/03/07 08:20:43;;;;;;;21.65;12.52;;;19.90;94.30;;;;;;5091801;28;20174;-76
2021/03/07 08:23:10;;;;;;;17.38;11.95;;;22.10;91.60;;;;;;5062437;28;20534;-75
2021/03/07 08:25:48;;;;;;;12.70;11.30;;;22.90;85.90;;;;;;5093402;28;20154;-75
2021/03/07 08:28:25;;;;;;;15.25;10.98;;;23.00;86.10;;;;;;5092859;28;20504;-74
2021/03/07 08:31:00;;;;;;;10.38;9.23;;;24.00;82.70;;;;;;5092809;28;20165;-75
2021/03/07 08:33:42;;;;;;;9.30;8.40;;;24.40;78.80;;;;;;5093374;28;20219;-75
2021/03/07 08:36:12;;;;;;;9.13;8.18;;;21.90;81.20;;;;;;5093412;28;20150;-75
2021/03/07 08:41:17;;;;;;;8.80;7.95;;;19.50;90.00;;;;;;5093036;28;20170;-75
2021/03/07 08:43:45;;;;;;;11.10;8.50;;;21.00;85.70;;;;;;5058696;28;20261;-74
2021/03/07 08:46:13;;;;;;;9.38;7.68;;;20.50;86.60;;;;;;5078854;28;20517;-74
2021/03/07 08:48:44;;;;;;;10.10;7.40;;;21.60;84.90;;;;;;5077593;28;20175;-75
2021/03/07 08:51:11;;;;;;;11.13;7.68;;;23.50;80.00;;;;;;5096687;28;20177;-75
2021/03/07 08:53:39;;;;;;;8.23;7.55;;;22.90;79.00;;;;;;5078517;28;20165;-74
2021/03/07 08:56:05;;;;;;;10.13;7.68;;;23.10;80.50;;;;;;5096664;28;20243;-75
2021/03/07 08:58:31;;;;;;;8.10;6.85;;;24.00;77.00;;;;;;5090744;28;20211;-75
2021/03/07 09:00:59;;;;;;;7.22;6.10;;;25.00;75.50;;;;;;5096149;28;20170;-75
2021/03/07 09:03:26;;;;;;;10.25;6.40;;;25.40;72.90;;;;;;5096123;28;20622;-75
2021/03/07 09:05:52;;;;;;;9.30;6.63;;;26.20;73.20;;;;;;5096144;28;20218;-74
2021/03/07 09:08:23;;;;;;;8.73;6.38;;;27.50;68.70;;;;;;5094481;28;20181;-76
2021/03/07 09:11:02;;;;;;;8.82;6.57;;;25.20;69.60;;;;;;5070478;28;20215;-75
2021/03/07 09:13:29;;;;;;;7.28;6.10;;;26.40;70.70;;;;;;5095661;28;20535;-75
2021/03/07 09:15:59;;;;;;;9.00;6.30;;;24.30;71.30;;;;;;5077949;28;20478;-75
2021/03/07 09:18:28;;;;;;;7.50;6.13;;;24.30;71.90;;;;;;5092649;28;20204;-74
2021/03/07 09:21:11;;;;;;;6.50;5.93;;;25.00;70.20;;;;;;5087907;28;20239;-75
2021/03/07 09:23:45;;;;;;;7.55;5.95;;;24.60;70.70;;;;;;5078212;28;20241;-73
2021/03/07 09:26:21;;;;;;;6.30;5.70;;;25.20;69.00;;;;;;5074528;28;20208;-78
2021/03/07 09:28:52;;;;;;;6.75;6.15;;;24.60;70.50;;;;;;5075997;28;20198;-76
2021/03/07 09:31:32;;;;;;;11.13;6.00;;;25.80;69.60;;;;;;5081459;28;20181;-75
2021/03/07 09:33:59;;;;;;;6.72;6.03;;;24.50;68.20;;;;;;5071824;28;20171;-74
2021/03/07 09:36:30;;;;;;;7.63;6.70;;;23.50;70.00;;;;;;5094228;28;20169;-75
2021/03/07 09:38:59;;;;;;;6.47;5.95;;;24.60;70.70;;;;;;5066993;28;20273;-75
2021/03/07 09:41:40;;;;;;;8.32;5.65;;;26.00;68.10;;;;;;5095584;28;20194;-74
2021/03/07 09:44:31;;;;;;;5.13;4.53;;;26.30;67.80;;;;;;5078901;28;20216;-75
2021/03/07 09:46:58;;;;;;;9.98;6.15;;;26.50;66.60;;;;;;5075796;28;20182;-75
2021/03/07 09:49:25;;;;;;;4.93;4.45;;;27.90;64.80;;;;;;5054583;28;20221;-74
2021/03/07 09:51:55;;;;;;;4.82;4.40;;;28.00;63.30;;;;;;5075885;28;20166;-75
2021/03/07 09:54:21;;;;;;;6.78;5.35;;;26.50;62.50;;;;;;5093093;28;20162;-75
2021/03/07 09:56:47;;;;;;;6.93;5.50;;;25.70;66.50;;;;;;5092434;28;20209;-79
2021/03/07 09:59:30;;;;;;;5.47;4.97;;;26.30;66.70;;;;;;5094700;28;20253;-77
2021/03/07 10:02:04;;;;;;;5.45;4.63;;;27.20;65.50;;;;;;5090964;28;20169;-77
2021/03/07 10:04:39;;;;;;;5.65;4.78;;;27.20;63.50;;;;;;5095425;28;20466;-78
2021/03/07 10:07:11;;;;;;;4.47;4.07;;;26.30;63.10;;;;;;5094018;28;20165;-77
2021/03/07 10:09:58;;;;;;;5.15;3.75;;;25.20;65.80;;;;;;5093548;28;20166;-79
2021/03/07 10:12:24;;;;;;;3.83;3.53;;;25.40;65.10;;;;;;5094239;28;20172;-78
2021/03/07 10:14:55;;;;;;;5.15;3.30;;;25.10;63.00;;;;;;5094154;28;20547;-77
2021/03/07 10:17:21;;;;;;;8.55;3.42;;;22.50;66.00;;;;;;5082344;28;20190;-75
2021/03/07 10:19:47;;;;;;;5.65;3.92;;;19.70;71.10;;;;;;5095423;28;20166;-75
2021/03/07 10:22:13;;;;;;;3.80;3.50;;;17.40;78.20;;;;;;5077239;28;20617;-75
2021/03/07 10:24:39;;;;;;;4.15;3.85;;;17.00;79.80;;;;;;5094617;28;20178;-76
2021/03/07 10:27:08;;;;;;;6.10;3.88;;;18.60;77.70;;;;;;5094932;28;20170;-75
2021/03/07 10:29:36;;;;;;;10.02;3.92;;;21.60;73.60;;;;;;5077057;28;20272;-75
2021/03/07 10:32:19;;;;;;;15.27;4.60;;;24.00;66.00;;;;;;5076599;28;20158;-74
2021/03/07 10:34:53;;;;;;;5.88;4.47;;;22.60;67.70;;;;;;5074788;28;20162;-75
2021/03/07 10:37:39;;;;;;;5.22;4.68;;;21.80;70.00;;;;;;5089491;28;20288;-74
2021/03/07 10:40:07;;;;;;;5.05;4.55;;;23.60;68.00;;;;;;5093327;28;20610;-75
2021/03/07 10:42:34;;;;;;;4.28;3.85;;;22.60;69.20;;;;;;5094867;28;20165;-74
2021/03/07 10:45:16;;;;;;;5.30;3.92;;;24.00;67.00;;;;;;5094666;28;20260;-75
2021/03/07 10:47:42;;;;;;;5.28;4.78;;;23.10;66.60;;;;;;5094126;28;20257;-75
2021/03/07 10:50:09;;;;;;;5.30;4.80;;;24.30;67.40;;;;;;5076383;28;20169;-75
2021/03/07 10:52:34;;;;;;;4.85;3.53;;;24.00;67.30;;;;;;5094053;28;20166;-75
2021/03/07 10:55:00;;;;;;;5.28;4.00;;;20.70;67.50;;;;;;5094094;28;20176;-75
2021/03/07 10:57:25;;;;;;;5.13;4.25;;;19.00;72.10;;;;;;5059404;28;20296;-74
2021/03/07 10:59:52;;;;;;;5.95;5.32;;;16.00;79.20;;;;;;5092871;28;20263;-76
2021/03/07 11:02:18;;;;;;;5.13;4.38;;;16.60;82.00;;;;;;5072587;28;20177;-75
2021/03/07 11:04:45;;;;;;;5.40;4.90;;;20.90;75.10;;;;;;5093628;28;20170;-74
2021/03/07 11:07:12;;;;;;;5.68;4.88;;;19.60;72.10;;;;;;5094298;28;20174;-74
2021/03/07 11:09:39;;;;;;;9.20;5.28;;;18.30;73.40;;;;;;5093499;28;20162;-75
2021/03/07 11:12:08;;;;;;;4.90;4.45;;;16.40;79.00;;;;;;5093918;28;20162;-74
2021/03/07 11:14:33;;;;;;;6.00;4.93;;;14.80;80.70;;;;;;5094128;28;20258;-74
2021/03/07 11:16:59;;;;;;;5.75;4.65;;;14.80;82.70;;;;;;5091283;28;20659;-75
2021/03/07 11:19:25;;;;;;;5.43;4.95;;;14.50;81.20;;;;;;5075918;28;20251;-74
2021/03/07 11:21:50;;;;;;;7.40;6.35;;;13.10;85.50;;;;;;5093916;28;20171;-75
2021/03/07 11:24:16;;;;;;;6.15;5.57;;;12.10;89.40;;;;;;5070919;28;20254;-74
2021/03/07 11:26:42;;;;;;;7.30;5.72;;;10.40;91.00;;;;;;5084715;28;20166;-74
2021/03/07 11:29:08;;;;;;;7.82;6.63;;;10.20;92.50;;;;;;5058955;28;20579;-74
2021/03/07 11:31:34;;;;;;;9.82;6.72;;;9.90;93.50;;;;;;5087945;28;20598;-76
2021/03/07 11:33:59;;;;;;;7.03;6.35;;;11.00;92.60;;;;;;5093557;28;20178;-75
2021/03/07 11:36:25;;;;;;;7.22;5.88;;;12.10;92.40;;;;;;5075718;28;20642;-74
2021/03/07 11:38:51;;;;;;;8.88;6.32;;;16.10;87.30;;;;;;5080385;28;20170;-74
2021/03/07 11:41:16;;;;;;;6.88;6.20;;;16.30;80.40;;;;;;5093616;28;20634;-73
2021/03/07 11:43:42;;;;;;;6.65;6.05;;;16.30;82.10;;;;;;5091980;28;20170;-82
2021/03/07 11:46:07;;;;;;;6.78;5.80;;;14.40;83.50;;;;;;5071618;28;20680;-76
2021/03/07 11:48:33;;;;;;;8.55;5.13;;;13.30;86.40;;;;;;5075387;28;20170;-76
2021/03/07 11:50:59;;;;;;;5.90;5.30;;;16.50;80.00;;;;;;5093719;28;20185;-75
2021/03/07 11:53:24;;;;;;;7.63;5.70;;;17.80;76.40;;;;;;5083001;28;20166;-74
2021/03/07 11:55:50;;;;;;;4.95;4.55;;;19.60;74.80;;;;;;5092438;28;20197;-73
2021/03/07 11:58:15;;;;;;;5.45;4.55;;;19.10;71.90;;;;;;5092987;28;20224;-75
2021/03/07 12:00:41;;;;;;;7.75;4.68;;;16.30;75.70;;;;;;5092179;28;20193;-75
2021/03/07 12:03:07;;;;;;;7.60;5.95;;;13.60;82.50;;;;;;5093354;28;20162;-74
2021/03/07 12:05:32;;;;;;;5.45;5.00;;;14.00;84.40;;;;;;5093510;28;20247;-75
2021/03/07 12:07:58;;;;;;;4.53;4.20;;;17.60;78.60;;;;;;5092366;28;20169;-74
2021/03/07 12:10:25;;;;;;;5.78;5.28;;;17.20;74.40;;;;;;5093396;28;20244;-75
2021/03/07 12:12:51;;;;;;;5.43;4.68;;;17.20;77.40;;;;;;5093590;28;20261;-74
2021/03/07 12:15:16;;;;;;;6.20;4.72;;;19.40;73.40;;;;;;5093484;28;20621;-75
2021/03/07 12:17:42;;;;;;;4.75;4.25;;;20.60;72.70;;;;;;5093177;28;20189;-75
2021/03/07 12:20:08;;;;;;;4.88;4.32;;;19.40;69.80;;;;;;5093213;28;20162;-75
2021/03/07 12:22:35;;;;;;;4.78;4.28;;;18.80;70.90;;;;;;5074920;28;20162;-74
2021/03/07 12:25:02;;;;;;;4.60;4.25;;;18.00;74.80;;;;;;5097334;28;20231;-74
2021/03/07 12:27:28;;;;;;;4.93;4.53;;;14.90;76.20;;;;;;5095446;28;20204;-74
2021/03/07 12:29:53;;;;;;;4.65;4.30;;;13.40;84.20;;;;;;5093547;28;20178;-74
2021/03/07 12:32:19;;;;;;;5.32;4.35;;;12.90;87.10;;;;;;5096238;28;20166;-74
2021/03/07 12:34:44;;;;;;;8.65;6.25;;;12.50;85.60;;;;;;5087271;28;20174;-77
2021/03/07 12:37:10;;;;;;;8.23;5.28;;;13.80;83.60;;;;;;5087017;28;20220;-74
2021/03/07 12:39:36;;;;;;;13.18;4.63;;;16.10;80.00;;;;;;5097048;28;20170;-75
2021/03/07 12:42:02;;;;;;;6.57;4.80;;;16.80;76.90;;;;;;5062202;28;20166;-75
2021/03/07 12:44:27;;;;;;;5.68;5.18;;;18.20;76.40;;;;;;5078666;28;20257;-76
2021/03/07 12:46:53;;;;;;;7.30;4.72;;;20.40;71.70;;;;;;5097022;28;20614;-74
2021/03/07 12:49:19;;;;;;;4.38;4.03;;;20.60;71.80;;;;;;5097059;28;20200;-74
2021/03/07 12:51:44;;;;;;;4.72;4.32;;;18.10;72.70;;;;;;5081197;28;20368;-74